»·PEaware :: N1159Z KSAN-KPSP

N1159Z :: KSAN-KPSP

FLIGHT INFORMATION

Flight Status: Arrived
Operator: Privately registered:
United States
More flights under this callsign
Pilot: Daniel E. (20059)
Aircraft: CESSNA 172 SKYHAWK
(C172)
More flights by this aircraft type
Origin: KSAN San Diego Intl-Lindbergh
United States
Destination: KPSP Palm Springs Intl
United States
More flights between these airports :: More routes between these airports
Route: +
File this flight plan on PilotEdge
Remarks:
Altitude:
(Current/Filed)
0ft
Speed:
(Current/Filed)
0kts
Departed: 02-Jan-20 05:01 PM
Arrived: 02-Jan-20 05:58 PM
Distance/Time
Traveled:
74nm/0:56
Distance/Time
To Go:
Arrived

Flight Plot

Page will automatically refresh every two minutes.


Map Options




Map Legend


Flown Route
Filed Route
Departure Airport
Arrival Airport
Navaid (VOR, NDB)
Fix

Horizontal Profiles

Position Reports

Time Latitude Longitude Heading Altitude Ground
Speed
02-Jan-20 16:50 32.732420 -117.176641 194 22ft 0kts
02-Jan-20 16:51 32.732420 -117.176641 194 22ft 0kts
02-Jan-20 16:52 32.732420 -117.176641 194 22ft 0kts
02-Jan-20 16:53 32.732420 -117.176641 194 22ft 0kts
02-Jan-20 16:54 32.732812 -117.176848 346 22ft 0kts
02-Jan-20 16:55 32.732845 -117.177073 262 22ft 0kts
02-Jan-20 16:56 32.732814 -117.177372 262 21ft 0kts
02-Jan-20 16:57 32.732034 -117.177749 215 20ft 4kts
02-Jan-20 16:58 32.731636 -117.176527 104 21ft 6kts
02-Jan-20 16:59 32.730303 -117.176268 286 20ft 24kts
02-Jan-20 17:00 32.728994 -117.197493 220 796ft 83kts
02-Jan-20 17:01 32.709348 -117.184469 131 1596ft 97kts
02-Jan-20 17:02 32.689965 -117.158661 128 2136ft 112kts
02-Jan-20 17:03 32.673406 -117.129968 112 2823ft 104kts
02-Jan-20 17:04 32.654327 -117.102820 124 3406ft 106kts
02-Jan-20 17:05 32.635627 -117.075675 128 3968ft 108kts
02-Jan-20 17:06 32.626604 -117.048042 20 4439ft 100kts
02-Jan-20 17:07 32.652240 -117.041251 14 4969ft 97kts
02-Jan-20 17:08 32.677220 -117.031496 7 5437ft 94kts
02-Jan-20 17:09 32.701013 -117.016904 18 5815ft 98kts
02-Jan-20 17:10 32.724402 -117.000207 19 6162ft 98kts
02-Jan-20 17:11 32.748103 -116.984750 18 6520ft 96kts
02-Jan-20 17:12 32.772316 -116.971746 9 6856ft 94kts
02-Jan-20 17:13 32.797292 -116.960767 4 7085ft 95kts
02-Jan-20 17:14 32.823068 -116.955335 357 7331ft 93kts
02-Jan-20 17:15 32.848799 -116.948009 7 7529ft 99kts
02-Jan-20 17:16 32.877428 -116.942239 355 7492ft 108kts
02-Jan-20 17:17 32.907284 -116.943776 352 7446ft 108kts
02-Jan-20 17:18 32.937411 -116.938492 1 7434ft 109kts
02-Jan-20 17:19 32.967406 -116.930667 3 7418ft 109kts
02-Jan-20 17:20 32.997134 -116.923756 2 7439ft 108kts
02-Jan-20 17:21 33.026677 -116.917209 358 7471ft 106kts
02-Jan-20 17:22 33.054949 -116.918002 348 7613ft 99kts
02-Jan-20 17:23 33.081653 -116.908333 19 7757ft 105kts
02-Jan-20 17:24 33.107115 -116.892311 16 7942ft 102kts
02-Jan-20 17:25 33.131983 -116.876467 11 8111ft 100kts
02-Jan-20 17:26 33.156247 -116.859244 20 8272ft 102kts
02-Jan-20 17:27 33.177787 -116.835499 23 8446ft 102kts
02-Jan-20 17:28 33.200681 -116.815924 23 8604ft 101kts
02-Jan-20 17:29 33.221567 -116.792575 23 8759ft 101kts
02-Jan-20 17:30 33.245769 -116.781194 21 8885ft 100kts
02-Jan-20 17:31 33.268489 -116.763663 10 9041ft 93kts
02-Jan-20 17:32 33.291681 -116.748765 22 9172ft 99kts
02-Jan-20 17:33 33.314791 -116.735415 0 9282ft 89kts
02-Jan-20 17:34 33.336714 -116.716363 25 9389ft 99kts
02-Jan-20 17:35 33.358309 -116.694522 17 9432ft 99kts
02-Jan-20 17:36 33.382080 -116.677560 13 9486ft 98kts
02-Jan-20 17:37 33.405939 -116.659650 20 9527ft 105kts
02-Jan-20 17:38 33.428427 -116.635554 21 9566ft 108kts
02-Jan-20 17:39 33.453385 -116.618566 10 9611ft 102kts
02-Jan-20 17:40 33.478163 -116.600017 9 9606ft 102kts
02-Jan-20 17:41 33.503557 -116.583137 21 9579ft 108kts
02-Jan-20 17:42 33.527957 -116.563076 10 9534ft 102kts
02-Jan-20 17:43 33.553540 -116.547663 17 9488ft 105kts
02-Jan-20 17:44 33.576947 -116.525962 26 9439ft 109kts
02-Jan-20 17:45 33.599830 -116.503024 17 9350ft 103kts
02-Jan-20 17:46 33.625061 -116.486456 16 9228ft 105kts
02-Jan-20 17:47 33.646612 -116.460110 43 8381ft 117kts
02-Jan-20 17:48 33.660893 -116.425302 49 7387ft 117kts
02-Jan-20 17:49 33.677371 -116.395588 9 6488ft 96kts
02-Jan-20 17:50 33.704596 -116.394509 334 5163ft 100kts
02-Jan-20 17:51 33.728922 -116.410801 316 3777ft 105kts
02-Jan-20 17:52 33.751402 -116.430861 314 2569ft 112kts
02-Jan-20 17:53 33.771160 -116.450875 317 1665ft 101kts
02-Jan-20 17:54 33.788556 -116.467343 316 1221ft 90kts
02-Jan-20 17:55 33.804056 -116.481566 318 957ft 77kts
02-Jan-20 17:56 33.817237 -116.493668 318 621ft 69kts
02-Jan-20 17:57 33.828769 -116.504031 319 419ft 34kts
02-Jan-20 17:58 33.831747 -116.506131 56 426ft 0kts
02-Jan-20 17:59 33.830619 -116.504638 139 421ft 18kts
02-Jan-20 18:00 33.826126 -116.500671 143 407ft 13kts
02-Jan-20 18:01 33.823698 -116.497996 104 398ft 8kts

Navigation Log

Ident Type
Flight plan parsing failed, navigation log unavailable